sensor_id;sensor_type;location;lat;lon;timestamp;P1;durP1;ratioP1;P2;durP2;ratioP2
60859;SDS011;46694;54.382;9.708;2022-08-19T00:01:23;31.40;;;20.37;;
60859;SDS011;46694;54.382;9.708;2022-08-19T00:04:06;34.60;;;21.50;;
60859;SDS011;46694;54.382;9.708;2022-08-19T00:06:51;34.00;;;20.23;;
60859;SDS011;46694;54.382;9.708;2022-08-19T00:09:31;32.00;;;18.50;;
60859;SDS011;46694;54.382;9.708;2022-08-19T00:12:10;30.23;;;19.33;;
60859;SDS011;46694;54.382;9.708;2022-08-19T00:14:50;30.40;;;18.70;;
60859;SDS011;46694;54.382;9.708;2022-08-19T00:17:32;34.67;;;20.90;;
60859;SDS011;46694;54.382;9.708;2022-08-19T00:20:13;29.10;;;20.03;;
60859;SDS011;46694;54.382;9.708;2022-08-19T00:22:56;35.27;;;20.40;;
60859;SDS011;46694;54.382;9.708;2022-08-19T00:25:36;32.30;;;20.23;;
60859;SDS011;46694;54.382;9.708;2022-08-19T00:28:16;35.67;;;22.00;;
60859;SDS011;46694;54.382;9.708;2022-08-19T00:30:55;31.50;;;20.83;;
60859;SDS011;46694;54.382;9.708;2022-08-19T00:33:35;31.63;;;21.70;;
60859;SDS011;46694;54.382;9.708;2022-08-19T00:36:15;35.73;;;20.83;;
60859;SDS011;46694;54.382;9.708;2022-08-19T00:38:55;42.73;;;21.67;;
60859;SDS011;46694;54.382;9.708;2022-08-19T00:41:35;31.43;;;21.60;;
60859;SDS011;46694;54.382;9.708;2022-08-19T00:44:19;30.90;;;21.57;;
60859;SDS011;46694;54.382;9.708;2022-08-19T00:47:03;34.87;;;20.40;;
60859;SDS011;46694;54.382;9.708;2022-08-19T00:49:46;39.03;;;19.77;;
60859;SDS011;46694;54.382;9.708;2022-08-19T00:52:32;37.27;;;19.80;;
60859;SDS011;46694;54.382;9.708;2022-08-19T00:55:24;39.03;;;22.60;;
60859;SDS011;46694;54.382;9.708;2022-08-19T00:58:08;37.83;;;21.10;;
60859;SDS011;46694;54.382;9.708;2022-08-19T01:00:52;29.47;;;19.40;;
60859;SDS011;46694;54.382;9.708;2022-08-19T01:03:32;36.63;;;20.40;;
60859;SDS011;46694;54.382;9.708;2022-08-19T01:06:11;32.53;;;19.30;;
60859;SDS011;46694;54.382;9.708;2022-08-19T01:08:53;36.83;;;19.80;;
60859;SDS011;46694;54.382;9.708;2022-08-19T01:11:34;35.07;;;19.60;;
60859;SDS011;46694;54.382;9.708;2022-08-19T01:14:17;27.73;;;19.43;;
60859;SDS011;46694;54.382;9.708;2022-08-19T01:16:58;45.10;;;20.10;;
60859;SDS011;46694;54.382;9.708;2022-08-19T01:19:39;33.73;;;20.97;;
60859;SDS011;46694;54.382;9.708;2022-08-19T01:25:07;33.80;;;21.10;;
60859;SDS011;46694;54.382;9.708;2022-08-19T01:27:48;41.97;;;20.67;;
60859;SDS011;46694;54.382;9.708;2022-08-19T01:30:32;36.63;;;20.50;;
60859;SDS011;46694;54.382;9.708;2022-08-19T01:33:13;40.43;;;23.07;;
60859;SDS011;46694;54.382;9.708;2022-08-19T01:35:53;29.23;;;21.70;;
60859;SDS011;46694;54.382;9.708;2022-08-19T01:38:52;30.43;;;20.40;;
60859;SDS011;46694;54.382;9.708;2022-08-19T01:41:33;31.90;;;20.47;;
60859;SDS011;46694;54.382;9.708;2022-08-19T01:44:13;39.23;;;22.10;;
60859;SDS011;46694;54.382;9.708;2022-08-19T01:46:53;35.93;;;20.90;;
60859;SDS011;46694;54.382;9.708;2022-08-19T01:49:33;38.97;;;21.47;;
60859;SDS011;46694;54.382;9.708;2022-08-19T01:52:13;38.30;;;22.60;;
60859;SDS011;46694;54.382;9.708;2022-08-19T01:54:53;32.23;;;22.73;;
60859;SDS011;46694;54.382;9.708;2022-08-19T01:57:32;30.17;;;21.13;;
60859;SDS011;46694;54.382;9.708;2022-08-19T02:00:13;45.97;;;23.80;;
60859;SDS011;46694;54.382;9.708;2022-08-19T02:02:55;29.53;;;21.43;;
60859;SDS011;46694;54.382;9.708;2022-08-19T02:05:35;34.23;;;22.20;;
60859;SDS011;46694;54.382;9.708;2022-08-19T02:08:16;39.63;;;22.10;;
60859;SDS011;46694;54.382;9.708;2022-08-19T02:10:56;38.40;;;23.40;;
60859;SDS011;46694;54.382;9.708;2022-08-19T02:13:36;48.53;;;22.37;;
60859;SDS011;46694;54.382;9.708;2022-08-19T02:16:18;40.87;;;23.50;;
60859;SDS011;46694;54.382;9.708;2022-08-19T02:18:58;49.03;;;24.50;;
60859;SDS011;46694;54.382;9.708;2022-08-19T02:21:41;45.13;;;23.50;;
60859;SDS011;46694;54.382;9.708;2022-08-19T02:24:22;45.17;;;23.60;;
60859;SDS011;46694;54.382;9.708;2022-08-19T02:27:01;43.93;;;23.70;;
60859;SDS011;46694;54.382;9.708;2022-08-19T02:29:41;44.00;;;25.00;;
60859;SDS011;46694;54.382;9.708;2022-08-19T02:32:21;39.50;;;23.70;;
60859;SDS011;46694;54.382;9.708;2022-08-19T02:35:01;55.00;;;25.93;;
60859;SDS011;46694;54.382;9.708;2022-08-19T02:37:41;56.33;;;25.93;;
60859;SDS011;46694;54.382;9.708;2022-08-19T02:40:47;55.50;;;24.57;;
60859;SDS011;46694;54.382;9.708;2022-08-19T02:43:39;57.23;;;27.63;;
60859;SDS011;46694;54.382;9.708;2022-08-19T02:46:20;63.07;;;30.20;;
60859;SDS011;46694;54.382;9.708;2022-08-19T02:49:05;66.80;;;27.00;;
60859;SDS011;46694;54.382;9.708;2022-08-19T02:51:46;69.23;;;27.70;;
60859;SDS011;46694;54.382;9.708;2022-08-19T02:54:26;66.13;;;28.10;;
60859;SDS011;46694;54.382;9.708;2022-08-19T02:57:06;43.87;;;25.40;;
60859;SDS011;46694;54.382;9.708;2022-08-19T02:59:46;56.10;;;26.13;;
60859;SDS011;46694;54.382;9.708;2022-08-19T03:02:25;58.63;;;26.60;;
60859;SDS011;46694;54.382;9.708;2022-08-19T03:05:06;64.43;;;27.20;;
60859;SDS011;46694;54.382;9.708;2022-08-19T03:07:48;67.23;;;28.03;;
60859;SDS011;46694;54.382;9.708;2022-08-19T03:10:28;54.60;;;25.67;;
60859;SDS011;46694;54.382;9.708;2022-08-19T03:13:07;61.50;;;26.27;;
60859;SDS011;46694;54.382;9.708;2022-08-19T03:15:47;47.13;;;25.20;;
60859;SDS011;46694;54.382;9.708;2022-08-19T03:18:27;49.30;;;25.17;;
60859;SDS011;46694;54.382;9.708;2022-08-19T03:21:07;46.07;;;24.60;;
60859;SDS011;46694;54.382;9.708;2022-08-19T03:23:46;55.07;;;26.90;;
60859;SDS011;46694;54.382;9.708;2022-08-19T03:26:27;63.90;;;27.00;;
60859;SDS011;46694;54.382;9.708;2022-08-19T03:29:07;50.80;;;26.30;;
60859;SDS011;46694;54.382;9.708;2022-08-19T03:31:49;55.43;;;25.93;;
60859;SDS011;46694;54.382;9.708;2022-08-19T03:34:30;57.00;;;26.30;;
60859;SDS011;46694;54.382;9.708;2022-08-19T03:37:12;71.27;;;27.70;;
60859;SDS011;46694;54.382;9.708;2022-08-19T03:39:52;66.63;;;27.37;;
60859;SDS011;46694;54.382;9.708;2022-08-19T03:42:31;69.90;;;27.87;;
60859;SDS011;46694;54.382;9.708;2022-08-19T03:45:11;69.53;;;28.23;;
60859;SDS011;46694;54.382;9.708;2022-08-19T03:47:51;67.20;;;27.80;;
60859;SDS011;46694;54.382;9.708;2022-08-19T03:50:31;69.90;;;25.00;;
60859;SDS011;46694;54.382;9.708;2022-08-19T03:53:10;53.00;;;25.53;;
60859;SDS011;46694;54.382;9.708;2022-08-19T03:55:50;80.23;;;25.87;;
60859;SDS011;46694;54.382;9.708;2022-08-19T03:58:29;75.67;;;26.27;;
60859;SDS011;46694;54.382;9.708;2022-08-19T04:01:19;66.43;;;27.07;;
60859;SDS011;46694;54.382;9.708;2022-08-19T04:04:02;94.17;;;29.73;;
60859;SDS011;46694;54.382;9.708;2022-08-19T04:06:42;82.20;;;27.60;;
60859;SDS011;46694;54.382;9.708;2022-08-19T04:09:22;67.27;;;27.87;;
60859;SDS011;46694;54.382;9.708;2022-08-19T04:12:03;68.97;;;27.30;;
60859;SDS011;46694;54.382;9.708;2022-08-19T04:14:44;72.37;;;26.67;;
60859;SDS011;46694;54.382;9.708;2022-08-19T04:17:23;61.23;;;28.43;;
60859;SDS011;46694;54.382;9.708;2022-08-19T04:20:04;67.53;;;26.37;;
60859;SDS011;46694;54.382;9.708;2022-08-19T04:22:44;65.07;;;26.83;;
60859;SDS011;46694;54.382;9.708;2022-08-19T04:25:24;73.60;;;26.90;;
60859;SDS011;46694;54.382;9.708;2022-08-19T04:28:04;69.73;;;26.20;;
60859;SDS011;46694;54.382;9.708;2022-08-19T04:30:45;69.27;;;28.57;;
60859;SDS011;46694;54.382;9.708;2022-08-19T04:33:29;75.60;;;27.97;;
60859;SDS011;46694;54.382;9.708;2022-08-19T04:36:15;72.30;;;26.70;;
60859;SDS011;46694;54.382;9.708;2022-08-19T04:39:00;84.47;;;28.13;;
60859;SDS011;46694;54.382;9.708;2022-08-19T04:41:49;71.33;;;27.30;;
60859;SDS011;46694;54.382;9.708;2022-08-19T04:44:47;64.37;;;28.27;;
60859;SDS011;46694;54.382;9.708;2022-08-19T04:47:29;55.80;;;27.13;;
60859;SDS011;46694;54.382;9.708;2022-08-19T04:50:11;68.80;;;27.30;;
60859;SDS011;46694;54.382;9.708;2022-08-19T04:52:51;68.07;;;28.50;;
60859;SDS011;46694;54.382;9.708;2022-08-19T04:55:31;69.83;;;27.33;;
60859;SDS011;46694;54.382;9.708;2022-08-19T04:58:10;70.07;;;25.97;;
60859;SDS011;46694;54.382;9.708;2022-08-19T05:00:50;71.37;;;25.40;;
60859;SDS011;46694;54.382;9.708;2022-08-19T05:03:30;71.33;;;27.83;;
60859;SDS011;46694;54.382;9.708;2022-08-19T05:06:13;69.77;;;27.80;;
60859;SDS011;46694;54.382;9.708;2022-08-19T05:08:54;76.97;;;28.10;;
60859;SDS011;46694;54.382;9.708;2022-08-19T05:11:36;70.90;;;27.27;;
60859;SDS011;46694;54.382;9.708;2022-08-19T05:14:17;100.10;;;29.73;;
60859;SDS011;46694;54.382;9.708;2022-08-19T05:17:00;93.47;;;28.90;;
60859;SDS011;46694;54.382;9.708;2022-08-19T05:19:39;78.03;;;28.67;;
60859;SDS011;46694;54.382;9.708;2022-08-19T05:22:39;63.00;;;25.90;;
60859;SDS011;46694;54.382;9.708;2022-08-19T05:25:20;70.23;;;27.20;;
60859;SDS011;46694;54.382;9.708;2022-08-19T05:28:00;65.27;;;26.43;;
60859;SDS011;46694;54.382;9.708;2022-08-19T05:30:40;87.70;;;29.20;;
60859;SDS011;46694;54.382;9.708;2022-08-19T05:33:22;81.37;;;28.53;;
60859;SDS011;46694;54.382;9.708;2022-08-19T05:36:02;86.57;;;29.10;;
60859;SDS011;46694;54.382;9.708;2022-08-19T05:38:43;86.07;;;31.37;;
60859;SDS011;46694;54.382;9.708;2022-08-19T05:41:22;90.03;;;29.33;;
60859;SDS011;46694;54.382;9.708;2022-08-19T05:44:08;82.97;;;31.17;;
60859;SDS011;46694;54.382;9.708;2022-08-19T05:46:48;87.73;;;30.43;;
60859;SDS011;46694;54.382;9.708;2022-08-19T05:49:31;87.43;;;31.03;;
60859;SDS011;46694;54.382;9.708;2022-08-19T05:52:12;97.07;;;31.03;;
60859;SDS011;46694;54.382;9.708;2022-08-19T05:54:54;73.40;;;28.93;;
60859;SDS011;46694;54.382;9.708;2022-08-19T05:57:40;82.73;;;32.00;;
60859;SDS011;46694;54.382;9.708;2022-08-19T06:00:20;99.07;;;30.57;;
60859;SDS011;46694;54.382;9.708;2022-08-19T06:03:00;89.47;;;33.27;;
60859;SDS011;46694;54.382;9.708;2022-08-19T06:05:41;97.17;;;30.07;;
60859;SDS011;46694;54.382;9.708;2022-08-19T06:08:21;75.90;;;27.77;;
60859;SDS011;46694;54.382;9.708;2022-08-19T06:14:19;81.37;;;31.00;;
60859;SDS011;46694;54.382;9.708;2022-08-19T06:17:02;73.90;;;31.70;;
60859;SDS011;46694;54.382;9.708;2022-08-19T06:19:42;65.83;;;30.00;;
60859;SDS011;46694;54.382;9.708;2022-08-19T06:22:22;75.07;;;32.53;;
60859;SDS011;46694;54.382;9.708;2022-08-19T06:25:02;81.73;;;32.67;;
60859;SDS011;46694;54.382;9.708;2022-08-19T06:27:43;80.33;;;32.20;;
60859;SDS011;46694;54.382;9.708;2022-08-19T06:30:23;65.63;;;30.37;;
60859;SDS011;46694;54.382;9.708;2022-08-19T06:33:03;69.10;;;34.10;;
60859;SDS011;46694;54.382;9.708;2022-08-19T06:35:43;59.33;;;32.57;;
60859;SDS011;46694;54.382;9.708;2022-08-19T06:38:22;63.37;;;33.00;;
60859;SDS011;46694;54.382;9.708;2022-08-19T06:41:03;69.83;;;32.80;;
60859;SDS011;46694;54.382;9.708;2022-08-19T06:43:43;64.60;;;33.10;;
60859;SDS011;46694;54.382;9.708;2022-08-19T06:46:22;59.73;;;30.87;;
60859;SDS011;46694;54.382;9.708;2022-08-19T06:49:02;64.33;;;32.87;;
60859;SDS011;46694;54.382;9.708;2022-08-19T06:51:43;61.87;;;31.47;;
60859;SDS011;46694;54.382;9.708;2022-08-19T06:54:28;57.07;;;31.23;;
60859;SDS011;46694;54.382;9.708;2022-08-19T06:57:08;54.40;;;31.87;;
60859;SDS011;46694;54.382;9.708;2022-08-19T06:59:51;55.53;;;29.57;;
60859;SDS011;46694;54.382;9.708;2022-08-19T07:02:32;51.93;;;30.20;;
60859;SDS011;46694;54.382;9.708;2022-08-19T07:05:11;54.50;;;29.53;;
60859;SDS011;46694;54.382;9.708;2022-08-19T07:07:51;54.13;;;30.60;;
60859;SDS011;46694;54.382;9.708;2022-08-19T07:10:31;46.23;;;28.33;;
60859;SDS011;46694;54.382;9.708;2022-08-19T07:13:11;45.10;;;27.17;;
60859;SDS011;46694;54.382;9.708;2022-08-19T07:15:51;47.70;;;27.30;;
60859;SDS011;46694;54.382;9.708;2022-08-19T07:18:31;50.57;;;29.10;;
60859;SDS011;46694;54.382;9.708;2022-08-19T07:21:12;41.07;;;26.50;;
60859;SDS011;46694;54.382;9.708;2022-08-19T07:23:56;46.23;;;26.40;;
60859;SDS011;46694;54.382;9.708;2022-08-19T07:26:38;49.40;;;27.10;;
60859;SDS011;46694;54.382;9.708;2022-08-19T07:29:21;41.57;;;27.50;;
60859;SDS011;46694;54.382;9.708;2022-08-19T07:32:02;45.43;;;25.03;;
60859;SDS011;46694;54.382;9.708;2022-08-19T07:34:42;43.07;;;25.60;;
60859;SDS011;46694;54.382;9.708;2022-08-19T07:37:23;42.37;;;24.83;;
60859;SDS011;46694;54.382;9.708;2022-08-19T07:40:06;39.20;;;24.90;;
60859;SDS011;46694;54.382;9.708;2022-08-19T07:42:46;36.00;;;25.73;;
60859;SDS011;46694;54.382;9.708;2022-08-19T07:45:26;43.70;;;24.67;;
60859;SDS011;46694;54.382;9.708;2022-08-19T07:48:06;38.13;;;23.77;;
60859;SDS011;46694;54.382;9.708;2022-08-19T07:50:46;39.13;;;25.00;;
60859;SDS011;46694;54.382;9.708;2022-08-19T07:53:27;39.47;;;24.33;;
60859;SDS011;46694;54.382;9.708;2022-08-19T07:56:09;40.50;;;26.20;;
60859;SDS011;46694;54.382;9.708;2022-08-19T07:58:50;39.53;;;23.90;;
60859;SDS011;46694;54.382;9.708;2022-08-19T08:01:30;37.57;;;23.63;;
60859;SDS011;46694;54.382;9.708;2022-08-19T08:04:10;43.13;;;25.63;;
60859;SDS011;46694;54.382;9.708;2022-08-19T08:07:09;36.83;;;22.90;;
60859;SDS011;46694;54.382;9.708;2022-08-19T08:10:07;51.57;;;24.80;;
60859;SDS011;46694;54.382;9.708;2022-08-19T08:12:47;35.47;;;24.80;;
60859;SDS011;46694;54.382;9.708;2022-08-19T08:15:27;33.60;;;22.10;;
60859;SDS011;46694;54.382;9.708;2022-08-19T08:18:07;36.13;;;22.47;;
60859;SDS011;46694;54.382;9.708;2022-08-19T08:20:46;44.23;;;26.03;;
60859;SDS011;46694;54.382;9.708;2022-08-19T08:23:26;37.67;;;25.67;;
60859;SDS011;46694;54.382;9.708;2022-08-19T08:26:07;36.10;;;22.70;;
60859;SDS011;46694;54.382;9.708;2022-08-19T08:28:47;32.77;;;23.40;;
60859;SDS011;46694;54.382;9.708;2022-08-19T08:31:27;31.87;;;22.70;;
60859;SDS011;46694;54.382;9.708;2022-08-19T08:34:07;34.40;;;24.23;;
60859;SDS011;46694;54.382;9.708;2022-08-19T08:36:47;31.30;;;24.47;;
60859;SDS011;46694;54.382;9.708;2022-08-19T08:39:27;36.37;;;25.40;;
60859;SDS011;46694;54.382;9.708;2022-08-19T08:45:05;37.07;;;25.50;;
60859;SDS011;46694;54.382;9.708;2022-08-19T08:47:53;35.40;;;23.67;;
60859;SDS011;46694;54.382;9.708;2022-08-19T08:50:39;33.07;;;24.00;;
60859;SDS011;46694;54.382;9.708;2022-08-19T08:53:22;37.80;;;23.50;;
60859;SDS011;46694;54.382;9.708;2022-08-19T08:56:04;34.67;;;22.70;;
60859;SDS011;46694;54.382;9.708;2022-08-19T09:01:49;32.27;;;22.70;;
60859;SDS011;46694;54.382;9.708;2022-08-19T09:04:29;31.23;;;21.23;;
60859;SDS011;46694;54.382;9.708;2022-08-19T09:10:32;32.97;;;20.47;;
60859;SDS011;46694;54.382;9.708;2022-08-19T09:16:06;27.40;;;21.53;;
60859;SDS011;46694;54.382;9.708;2022-08-19T09:18:57;28.37;;;21.33;;
60859;SDS011;46694;54.382;9.708;2022-08-19T09:21:41;32.27;;;21.70;;
60859;SDS011;46694;54.382;9.708;2022-08-19T09:24:21;33.30;;;22.10;;
60859;SDS011;46694;54.382;9.708;2022-08-19T09:27:01;31.70;;;22.20;;
60859;SDS011;46694;54.382;9.708;2022-08-19T09:29:41;37.70;;;21.97;;
60859;SDS011;46694;54.382;9.708;2022-08-19T09:32:21;34.57;;;24.20;;
60859;SDS011;46694;54.382;9.708;2022-08-19T09:35:02;31.00;;;21.10;;
60859;SDS011;46694;54.382;9.708;2022-08-19T09:37:42;29.50;;;22.90;;
60859;SDS011;46694;54.382;9.708;2022-08-19T09:40:22;27.23;;;19.33;;
60859;SDS011;46694;54.382;9.708;2022-08-19T09:43:02;26.20;;;20.27;;
60859;SDS011;46694;54.382;9.708;2022-08-19T09:45:42;27.27;;;20.10;;
60859;SDS011;46694;54.382;9.708;2022-08-19T09:48:21;28.60;;;19.87;;
60859;SDS011;46694;54.382;9.708;2022-08-19T09:53:47;28.00;;;20.47;;
60859;SDS011;46694;54.382;9.708;2022-08-19T09:56:32;37.27;;;24.30;;
60859;SDS011;46694;54.382;9.708;2022-08-19T09:59:12;36.83;;;24.50;;
60859;SDS011;46694;54.382;9.708;2022-08-19T10:01:52;40.17;;;26.20;;
60859;SDS011;46694;54.382;9.708;2022-08-19T10:04:31;42.83;;;26.97;;
60859;SDS011;46694;54.382;9.708;2022-08-19T10:07:29;38.30;;;25.40;;
60859;SDS011;46694;54.382;9.708;2022-08-19T10:10:09;38.50;;;26.00;;
60859;SDS011;46694;54.382;9.708;2022-08-19T10:12:49;37.07;;;23.50;;
60859;SDS011;46694;54.382;9.708;2022-08-19T10:15:29;45.07;;;25.30;;
60859;SDS011;46694;54.382;9.708;2022-08-19T10:18:08;40.07;;;26.53;;
60859;SDS011;46694;54.382;9.708;2022-08-19T10:20:49;50.57;;;26.27;;
60859;SDS011;46694;54.382;9.708;2022-08-19T10:23:31;40.07;;;25.90;;
60859;SDS011;46694;54.382;9.708;2022-08-19T10:26:11;37.73;;;25.37;;
60859;SDS011;46694;54.382;9.708;2022-08-19T10:28:57;42.57;;;25.13;;
60859;SDS011;46694;54.382;9.708;2022-08-19T10:31:38;35.67;;;23.17;;
60859;SDS011;46694;54.382;9.708;2022-08-19T10:34:17;32.67;;;22.50;;
60859;SDS011;46694;54.382;9.708;2022-08-19T10:36:58;32.80;;;22.67;;
60859;SDS011;46694;54.382;9.708;2022-08-19T10:39:39;32.87;;;23.20;;
60859;SDS011;46694;54.382;9.708;2022-08-19T10:42:18;39.17;;;22.90;;
60859;SDS011;46694;54.382;9.708;2022-08-19T10:44:59;34.00;;;22.60;;
60859;SDS011;46694;54.382;9.708;2022-08-19T10:47:39;30.67;;;20.70;;
60859;SDS011;46694;54.382;9.708;2022-08-19T10:50:18;27.43;;;20.20;;
60859;SDS011;46694;54.382;9.708;2022-08-19T10:53:17;28.27;;;21.63;;
60859;SDS011;46694;54.382;9.708;2022-08-19T10:55:58;27.63;;;22.03;;
60859;SDS011;46694;54.382;9.708;2022-08-19T10:58:56;29.33;;;20.27;;
60859;SDS011;46694;54.382;9.708;2022-08-19T11:01:36;32.40;;;21.60;;
60859;SDS011;46694;54.382;9.708;2022-08-19T11:04:16;29.30;;;21.47;;
60859;SDS011;46694;54.382;9.708;2022-08-19T11:06:57;24.17;;;17.33;;
60859;SDS011;46694;54.382;9.708;2022-08-19T11:09:38;23.17;;;17.63;;
60859;SDS011;46694;54.382;9.708;2022-08-19T11:12:19;25.77;;;18.60;;
60859;SDS011;46694;54.382;9.708;2022-08-19T11:15:00;30.63;;;20.07;;
60859;SDS011;46694;54.382;9.708;2022-08-19T11:17:40;31.70;;;20.80;;
60859;SDS011;46694;54.382;9.708;2022-08-19T11:20:21;26.97;;;18.60;;
60859;SDS011;46694;54.382;9.708;2022-08-19T11:23:02;25.77;;;18.90;;
60859;SDS011;46694;54.382;9.708;2022-08-19T11:25:42;24.00;;;16.67;;
60859;SDS011;46694;54.382;9.708;2022-08-19T11:28:24;29.67;;;19.47;;
60859;SDS011;46694;54.382;9.708;2022-08-19T11:31:04;32.03;;;19.03;;
60859;SDS011;46694;54.382;9.708;2022-08-19T11:33:52;27.83;;;19.30;;
60859;SDS011;46694;54.382;9.708;2022-08-19T11:36:32;26.20;;;17.90;;
60859;SDS011;46694;54.382;9.708;2022-08-19T11:39:17;18.90;;;14.97;;
60859;SDS011;46694;54.382;9.708;2022-08-19T11:42:00;22.87;;;15.80;;
60859;SDS011;46694;54.382;9.708;2022-08-19T11:45:03;21.13;;;14.23;;
60859;SDS011;46694;54.382;9.708;2022-08-19T11:47:42;29.47;;;18.87;;
60859;SDS011;46694;54.382;9.708;2022-08-19T11:50:23;23.00;;;16.30;;
60859;SDS011;46694;54.382;9.708;2022-08-19T11:53:02;23.83;;;17.13;;
60859;SDS011;46694;54.382;9.708;2022-08-19T11:55:42;22.20;;;14.77;;
60859;SDS011;46694;54.382;9.708;2022-08-19T11:58:23;22.70;;;16.53;;
60859;SDS011;46694;54.382;9.708;2022-08-19T12:01:10;27.03;;;19.30;;
60859;SDS011;46694;54.382;9.708;2022-08-19T12:03:53;25.20;;;17.73;;
60859;SDS011;46694;54.382;9.708;2022-08-19T12:06:36;28.10;;;19.50;;
60859;SDS011;46694;54.382;9.708;2022-08-19T12:09:19;30.70;;;20.17;;
60859;SDS011;46694;54.382;9.708;2022-08-19T12:11:58;23.80;;;16.70;;
60859;SDS011;46694;54.382;9.708;2022-08-19T12:14:38;27.00;;;17.30;;
60859;SDS011;46694;54.382;9.708;2022-08-19T12:17:17;28.40;;;19.07;;
60859;SDS011;46694;54.382;9.708;2022-08-19T12:19:57;32.13;;;18.37;;
60859;SDS011;46694;54.382;9.708;2022-08-19T12:22:37;27.00;;;17.93;;
60859;SDS011;46694;54.382;9.708;2022-08-19T12:25:18;26.40;;;18.20;;
60859;SDS011;46694;54.382;9.708;2022-08-19T12:27:57;33.47;;;20.43;;
60859;SDS011;46694;54.382;9.708;2022-08-19T12:30:38;25.60;;;17.33;;
60859;SDS011;46694;54.382;9.708;2022-08-19T12:33:18;26.80;;;18.97;;
60859;SDS011;46694;54.382;9.708;2022-08-19T12:36:03;31.53;;;18.40;;
60859;SDS011;46694;54.382;9.708;2022-08-19T12:38:45;26.90;;;18.60;;
60859;SDS011;46694;54.382;9.708;2022-08-19T12:41:25;26.73;;;19.13;;
60859;SDS011;46694;54.382;9.708;2022-08-19T12:44:05;27.47;;;19.10;;
60859;SDS011;46694;54.382;9.708;2022-08-19T12:46:44;30.07;;;19.90;;
60859;SDS011;46694;54.382;9.708;2022-08-19T12:49:26;25.20;;;18.93;;
60859;SDS011;46694;54.382;9.708;2022-08-19T12:52:08;25.27;;;18.60;;
60859;SDS011;46694;54.382;9.708;2022-08-19T12:54:49;20.13;;;15.27;;
60859;SDS011;46694;54.382;9.708;2022-08-19T12:57:31;26.50;;;19.07;;
60859;SDS011;46694;54.382;9.708;2022-08-19T13:00:17;26.57;;;18.87;;
60859;SDS011;46694;54.382;9.708;2022-08-19T13:03:00;25.83;;;18.70;;
60859;SDS011;46694;54.382;9.708;2022-08-19T13:05:40;22.60;;;17.70;;
60859;SDS011;46694;54.382;9.708;2022-08-19T13:08:19;24.40;;;16.43;;
60859;SDS011;46694;54.382;9.708;2022-08-19T13:11:06;26.07;;;19.60;;
60859;SDS011;46694;54.382;9.708;2022-08-19T13:13:50;27.00;;;17.87;;
60859;SDS011;46694;54.382;9.708;2022-08-19T13:16:31;20.37;;;15.20;;
60859;SDS011;46694;54.382;9.708;2022-08-19T13:19:11;25.80;;;19.70;;
60859;SDS011;46694;54.382;9.708;2022-08-19T13:21:52;24.57;;;17.73;;
60859;SDS011;46694;54.382;9.708;2022-08-19T13:24:33;21.30;;;16.40;;
60859;SDS011;46694;54.382;9.708;2022-08-19T13:27:15;16.90;;;14.80;;
60859;SDS011;46694;54.382;9.708;2022-08-19T13:29:55;24.60;;;18.50;;
60859;SDS011;46694;54.382;9.708;2022-08-19T13:32:52;29.53;;;17.20;;
60859;SDS011;46694;54.382;9.708;2022-08-19T13:35:51;20.23;;;16.97;;
60859;SDS011;46694;54.382;9.708;2022-08-19T13:38:38;25.07;;;17.23;;
60859;SDS011;46694;54.382;9.708;2022-08-19T13:41:18;22.23;;;16.60;;
60859;SDS011;46694;54.382;9.708;2022-08-19T13:43:58;22.00;;;17.30;;
60859;SDS011;46694;54.382;9.708;2022-08-19T13:46:37;22.90;;;18.40;;
60859;SDS011;46694;54.382;9.708;2022-08-19T13:49:17;25.83;;;19.70;;
60859;SDS011;46694;54.382;9.708;2022-08-19T13:51:57;18.30;;;15.50;;
60859;SDS011;46694;54.382;9.708;2022-08-19T13:54:36;28.30;;;19.47;;
60859;SDS011;46694;54.382;9.708;2022-08-19T13:57:16;24.67;;;17.50;;
60859;SDS011;46694;54.382;9.708;2022-08-19T13:59:57;23.63;;;18.77;;
60859;SDS011;46694;54.382;9.708;2022-08-19T14:02:37;20.67;;;15.97;;
60859;SDS011;46694;54.382;9.708;2022-08-19T14:05:18;23.50;;;16.87;;
60859;SDS011;46694;54.382;9.708;2022-08-19T14:07:59;19.50;;;15.37;;
60859;SDS011;46694;54.382;9.708;2022-08-19T14:10:38;31.40;;;15.83;;
60859;SDS011;46694;54.382;9.708;2022-08-19T14:13:20;18.10;;;14.23;;
60859;SDS011;46694;54.382;9.708;2022-08-19T14:16:06;21.20;;;13.23;;
60859;SDS011;46694;54.382;9.708;2022-08-19T14:18:52;17.13;;;13.50;;
60859;SDS011;46694;54.382;9.708;2022-08-19T14:21:32;15.30;;;11.50;;
60859;SDS011;46694;54.382;9.708;2022-08-19T14:24:12;10.40;;;9.40;;
60859;SDS011;46694;54.382;9.708;2022-08-19T14:26:52;13.03;;;10.30;;
60859;SDS011;46694;54.382;9.708;2022-08-19T14:29:32;11.87;;;10.67;;
60859;SDS011;46694;54.382;9.708;2022-08-19T14:32:12;10.37;;;9.33;;
60859;SDS011;46694;54.382;9.708;2022-08-19T14:34:52;10.57;;;9.03;;
60859;SDS011;46694;54.382;9.708;2022-08-19T14:37:33;13.00;;;10.80;;
60859;SDS011;46694;54.382;9.708;2022-08-19T14:40:15;13.63;;;11.50;;
60859;SDS011;46694;54.382;9.708;2022-08-19T14:43:00;10.73;;;9.70;;
60859;SDS011;46694;54.382;9.708;2022-08-19T14:45:42;21.53;;;11.60;;
60859;SDS011;46694;54.382;9.708;2022-08-19T14:48:22;13.13;;;11.93;;
60859;SDS011;46694;54.382;9.708;2022-08-19T14:51:02;11.27;;;10.23;;
60859;SDS011;46694;54.382;9.708;2022-08-19T14:53:42;11.33;;;10.20;;
60859;SDS011;46694;54.382;9.708;2022-08-19T14:56:23;12.97;;;11.50;;
60859;SDS011;46694;54.382;9.708;2022-08-19T14:59:06;11.60;;;10.50;;
60859;SDS011;46694;54.382;9.708;2022-08-19T15:01:45;13.63;;;12.23;;
60859;SDS011;46694;54.382;9.708;2022-08-19T15:04:25;14.50;;;13.07;;
60859;SDS011;46694;54.382;9.708;2022-08-19T15:07:04;15.93;;;14.27;;
60859;SDS011;46694;54.382;9.708;2022-08-19T15:09:44;12.80;;;11.47;;
60859;SDS011;46694;54.382;9.708;2022-08-19T15:12:24;14.40;;;12.90;;
60859;SDS011;46694;54.382;9.708;2022-08-19T15:15:04;13.90;;;12.60;;
60859;SDS011;46694;54.382;9.708;2022-08-19T15:17:51;15.23;;;13.73;;
60859;SDS011;46694;54.382;9.708;2022-08-19T15:20:31;14.60;;;13.20;;
60859;SDS011;46694;54.382;9.708;2022-08-19T15:23:10;16.63;;;14.90;;
60859;SDS011;46694;54.382;9.708;2022-08-19T15:25:50;15.07;;;13.57;;
60859;SDS011;46694;54.382;9.708;2022-08-19T15:28:33;16.43;;;14.83;;
60859;SDS011;46694;54.382;9.708;2022-08-19T15:31:16;16.57;;;14.87;;
60859;SDS011;46694;54.382;9.708;2022-08-19T15:33:58;19.90;;;14.57;;
60859;SDS011;46694;54.382;9.708;2022-08-19T15:36:37;17.50;;;15.77;;
60859;SDS011;46694;54.382;9.708;2022-08-19T15:39:17;15.63;;;14.10;;
60859;SDS011;46694;54.382;9.708;2022-08-19T15:41:57;15.50;;;13.37;;
60859;SDS011;46694;54.382;9.708;2022-08-19T15:44:39;12.37;;;11.17;;
60859;SDS011;46694;54.382;9.708;2022-08-19T15:47:18;13.10;;;11.50;;
60859;SDS011;46694;54.382;9.708;2022-08-19T15:49:58;17.00;;;12.83;;
60859;SDS011;46694;54.382;9.708;2022-08-19T15:52:49;14.10;;;12.80;;
60859;SDS011;46694;54.382;9.708;2022-08-19T15:55:36;16.37;;;13.70;;
60859;SDS011;46694;54.382;9.708;2022-08-19T15:58:21;15.97;;;13.73;;
60859;SDS011;46694;54.382;9.708;2022-08-19T16:01:19;13.87;;;12.57;;
60859;SDS011;46694;54.382;9.708;2022-08-19T16:04:25;16.30;;;14.80;;
60859;SDS011;46694;54.382;9.708;2022-08-19T16:07:23;13.93;;;12.73;;